Parc national de Yoho, Colombie-Britannique

Conditions des dernières 24 heures

Ce tableau est un sommaire des conditions météo couvrant les dernières 24 heures. Ce sommaire inclut les paramètres suivants: température, humidité, point de rosée, direction et vitesse du vent, pression barométrique, facteur de refroidissement éolien ou indice humidex.
Date / Heure
(HAR)
Conditions Temp (°C) Humidite (%) Point de rose (°C) Vent (km/h) Pression (kPa) Vis (km) Refr. éolien
23 avril 2014
17:00 N.D. 1 82 -2 OSO 20 100,5 N.D. *
16:00 N.D. 3 69 -2 O 28 100,4 N.D. *
15:00 N.D. 1 75 -3 OSO 31 rafale 44 100,4 N.D. *
14:00 N.D. 2 73 -3 OSO 28 rafale 36 100,3 N.D. *
13:00 N.D. 4   62 -3 O 20 100,2 N.D. *
12:00 N.D. 1 70 -4 O 18 rafale 36 100,3 N.D. *
11:00 N.D. 0 84 -2 OSO 28 rafale 40 100,2 N.D. *
10:00 N.D. 0 85 -2 OSO 26 rafale 36 100,2 N.D. *
9:00 N.D. 0 91 -1 OSO 29 100,2 N.D. -7
8:00 N.D. -1   96 -1 OSO 17 100,2 N.D. -6
7:00 N.D. -1   100 -1 OSO 14 100,2 N.D. -6
6:00 N.D. -1   100 -1 OSO 21 100,1 N.D. -7
5:00 N.D. 0 100 0 OSO 23 100,1 N.D. -6
4:00 N.D. 0 100 0 O 20 100,1 N.D. -5
3:00 N.D. 0 100 0 OSO 18 100,0 N.D. -5
2:00 N.D. 0 100 0 SO 17 100,1 N.D. -5
1:00 N.D. 0 100 0 OSO 22 100,1 N.D. *
0:00 N.D. 1 100 1 OSO 11 100,0 N.D. *
22 avril 2014
23:00 N.D. 1 100 1 SO 9 100,1 N.D. *
22:00 N.D. 1 100 1 O 7 100,0 N.D. *
21:00 N.D. 1 100 1 OSO 15 100,1 N.D. *
20:00 N.D. 2 98 1 O 18 100,2 N.D. *
19:00 N.D. 1 98 1 OSO 8 100,2 N.D. *
18:00 N.D. 3 88 2 O 19 rafale 29 100,1 N.D. *
17:00 N.D. 4   79 1 O 23 100,1 N.D. *
N.D.
non disponible
 ↑ 
température la plus haute
 ↓ 
température la plus basse
*
Valeur non significative.

Si vous désirez plus de données historiques sur les conditions météo, s.v.p. visitez Données climatologiques en ligne.